createdAt,value
2022-11-29T00:00:52.787Z,11.38
2022-11-29T00:03:58.637Z,9.52
2022-11-29T00:07:04.022Z,12.50
2022-11-29T00:10:12.626Z,11.80
2022-11-29T00:13:17.785Z,13.77
2022-11-29T00:16:23.143Z,17.48
2022-11-29T00:19:28.397Z,12.27
2022-11-29T00:22:33.628Z,15.02
2022-11-29T00:25:41.549Z,13.23
2022-11-29T00:28:47.009Z,13.70
2022-11-29T00:31:52.184Z,15.90
2022-11-29T00:34:59.629Z,15.00
2022-11-29T00:38:05.103Z,13.57
2022-11-29T00:41:13.370Z,14.18
2022-11-29T00:44:20.618Z,12.13
2022-11-29T00:47:26.302Z,12.87
2022-11-29T00:50:31.334Z,12.98
2022-11-29T00:53:36.749Z,11.20
2022-11-29T00:56:44.384Z,13.07
2022-11-29T00:59:49.917Z,13.90
2022-11-29T01:02:54.935Z,13.05
2022-11-29T01:06:03.562Z,13.02
2022-11-29T01:09:09.109Z,11.30
2022-11-29T01:12:16.820Z,13.77
2022-11-29T01:15:22.010Z,9.38
2022-11-29T01:18:27.401Z,11.13
2022-11-29T01:21:32.974Z,11.82
2022-11-29T01:24:38.145Z,14.48
2022-11-29T01:27:45.973Z,12.88
2022-11-29T01:30:51.049Z,12.73
2022-11-29T01:33:56.878Z,10.40
2022-11-29T01:37:01.943Z,14.52
2022-11-29T01:40:07.617Z,10.60
2022-11-29T01:43:19.231Z,11.40
2022-11-29T01:46:24.447Z,13.40
2022-11-29T01:49:31.281Z,14.80
2022-11-29T01:52:36.494Z,13.82
2022-11-29T01:55:43.386Z,14.70
2022-11-29T01:58:51.359Z,15.82
2022-11-29T02:01:57.268Z,17.42
2022-11-29T02:05:03.632Z,20.75
2022-11-29T02:08:09.405Z,17.52
2022-11-29T02:11:43.768Z,15.15
2022-11-29T02:14:59.021Z,19.05
2022-11-29T02:18:07.677Z,21.48
2022-11-29T02:21:39.533Z,18.67
2022-11-29T02:24:53.319Z,17.17
2022-11-29T02:28:16.103Z,21.92
2022-11-29T02:31:35.844Z,18.67
2022-11-29T02:34:55.206Z,20.33
2022-11-29T02:38:05.483Z,17.13
2022-11-29T02:41:21.515Z,19.50
2022-11-29T02:44:33.667Z,23.73
2022-11-29T02:47:46.990Z,19.08
2022-11-29T02:50:58.422Z,18.90
2022-11-29T02:54:07.526Z,18.05
2022-11-29T02:57:17.979Z,17.98
2022-11-29T03:00:24.269Z,19.08
2022-11-29T03:03:30.795Z,21.55
2022-11-29T03:06:42.334Z,20.17
2022-11-29T03:09:49.613Z,19.58
2022-11-29T03:12:55.918Z,25.20
2022-11-29T03:16:02.403Z,22.20
2022-11-29T03:19:15.394Z,21.63
2022-11-29T03:22:29.071Z,24.55
2022-11-29T03:25:36.381Z,21.35
2022-11-29T03:28:43.200Z,25.30
2022-11-29T03:31:50.893Z,22.98
2022-11-29T03:34:59.477Z,20.38
2022-11-29T03:38:12.020Z,20.08
2022-11-29T03:41:21.474Z,21.17
2022-11-29T03:44:29.449Z,19.67
2022-11-29T03:47:37.646Z,23.08
2022-11-29T03:50:45.279Z,23.27
2022-11-29T03:53:55.472Z,27.40
2022-11-29T03:57:01.076Z,20.95
2022-11-29T04:00:08.697Z,21.15
2022-11-29T04:03:34.164Z,21.33
2022-11-29T04:06:46.362Z,19.35
2022-11-29T04:10:02.384Z,21.25
2022-11-29T04:13:23.902Z,20.45
2022-11-29T04:16:52.926Z,22.10
2022-11-29T04:20:11.599Z,20.15
2022-11-29T04:23:27.576Z,20.02
2022-11-29T04:26:50.768Z,21.02
2022-11-29T04:30:06.773Z,16.60
2022-11-29T04:33:32.368Z,17.42
2022-11-29T04:36:48.474Z,18.50
2022-11-29T04:40:00.429Z,17.75
2022-11-29T04:43:24.637Z,19.58
2022-11-29T04:46:38.907Z,22.42
2022-11-29T04:49:56.849Z,19.00
2022-11-29T04:53:11.401Z,19.55
2022-11-29T04:56:20.366Z,19.42
2022-11-29T04:59:31.153Z,19.10
2022-11-29T05:02:37.836Z,21.15
2022-11-29T05:05:46.321Z,18.30
2022-11-29T05:08:54.579Z,22.10
2022-11-29T05:12:03.264Z,23.35
2022-11-29T05:15:22.407Z,21.92
2022-11-29T05:18:30.222Z,19.73
2022-11-29T05:21:40.719Z,19.60
2022-11-29T05:24:54.908Z,22.63
2022-11-29T05:28:04.509Z,19.38
2022-11-29T05:31:27.003Z,18.92
2022-11-29T05:37:52.367Z,22.75
2022-11-29T05:41:04.663Z,19.98
2022-11-29T05:44:12.517Z,22.10
2022-11-29T05:47:23.099Z,21.92
2022-11-29T05:50:32.837Z,23.55
2022-11-29T05:53:48.352Z,23.27
2022-11-29T05:56:59.719Z,22.88
2022-11-29T06:00:06.428Z,29.13
2022-11-29T06:03:22.594Z,22.10
2022-11-29T06:06:33.641Z,20.13
2022-11-29T06:09:43.034Z,26.98
2022-11-29T06:12:51.268Z,23.10
2022-11-29T06:16:03.604Z,23.92
2022-11-29T06:19:25.397Z,25.60
2022-11-29T06:22:40.902Z,24.35
2022-11-29T06:26:00.697Z,23.95
2022-11-29T06:29:24.105Z,24.92
2022-11-29T06:32:34.337Z,31.77
2022-11-29T06:35:46.056Z,29.85
2022-11-29T06:38:54.177Z,34.22
2022-11-29T06:41:59.587Z,34.55
2022-11-29T06:45:04.897Z,32.05
2022-11-29T06:48:13.038Z,34.00
2022-11-29T06:51:21.511Z,31.50
2022-11-29T06:57:40.450Z,31.08
2022-11-29T07:00:49.314Z,37.33
2022-11-29T07:04:12.574Z,35.05
2022-11-29T07:07:19.949Z,34.90
2022-11-29T07:10:25.518Z,34.83
2022-11-29T07:13:34.154Z,35.88
2022-11-29T07:19:47.285Z,32.95
2022-11-29T07:22:58.405Z,33.00
2022-11-29T07:26:08.936Z,34.90
2022-11-29T07:29:24.884Z,43.35
2022-11-29T07:32:33.709Z,35.40
2022-11-29T07:35:43.136Z,36.50
2022-11-29T07:38:57.379Z,34.90
2022-11-29T07:42:06.415Z,38.67
2022-11-29T07:45:20.332Z,34.50
2022-11-29T07:48:27.128Z,37.05
2022-11-29T07:51:32.266Z,33.45
2022-11-29T07:54:37.480Z,34.67
2022-11-29T07:57:42.586Z,31.20
2022-11-29T08:00:50.383Z,34.75
2022-11-29T08:03:55.758Z,31.92
2022-11-29T08:07:01.216Z,27.08
2022-11-29T08:10:07.066Z,30.20
2022-11-29T08:13:12.224Z,35.75
2022-11-29T08:16:21.650Z,32.72
2022-11-29T08:19:26.710Z,33.10
2022-11-29T08:22:31.957Z,29.48
2022-11-29T08:25:37.571Z,34.60
2022-11-29T08:28:42.738Z,38.60
2022-11-29T08:31:53.890Z,33.78
2022-11-29T08:34:58.931Z,40.20
2022-11-29T08:38:05.207Z,40.10
2022-11-29T08:41:11.495Z,36.92
2022-11-29T08:44:16.717Z,40.17
2022-11-29T08:47:39.233Z,45.13
2022-11-29T08:50:44.503Z,42.45
2022-11-29T08:53:51.867Z,39.95
2022-11-29T09:00:22.691Z,41.88
2022-11-29T09:03:42.837Z,43.33
2022-11-29T09:06:51.992Z,42.50
2022-11-29T09:09:57.346Z,39.95
2022-11-29T09:13:02.580Z,36.10
2022-11-29T09:16:09.688Z,35.90
2022-11-29T09:19:19.822Z,41.03
2022-11-29T09:22:25.097Z,36.45
2022-11-29T09:25:30.765Z,40.63
2022-11-29T09:28:36.344Z,38.35
2022-11-29T09:31:41.709Z,47.70
2022-11-29T09:34:49.672Z,44.85
2022-11-29T09:37:54.873Z,45.92
2022-11-29T09:41:01.035Z,41.00
2022-11-29T09:44:08.298Z,39.65
2022-11-29T09:47:21.959Z,42.95
2022-11-29T09:50:34.998Z,44.70
2022-11-29T09:53:47.215Z,44.17
2022-11-29T09:56:53.683Z,45.60
2022-11-29T10:00:01.131Z,50.75
2022-11-29T10:03:13.900Z,41.63
2022-11-29T10:06:24.318Z,55.45
2022-11-29T10:09:33.941Z,45.72
2022-11-29T10:12:41.322Z,50.35
2022-11-29T10:15:47.447Z,43.75
2022-11-29T10:18:54.937Z,46.13
2022-11-29T10:22:06.508Z,41.10
2022-11-29T10:25:13.533Z,39.55
2022-11-29T10:28:19.628Z,46.45
2022-11-29T10:31:27.294Z,40.50
2022-11-29T10:34:34.025Z,36.70
2022-11-29T10:37:45.856Z,30.20
2022-11-29T10:41:00.076Z,32.67
2022-11-29T10:44:05.280Z,27.10
2022-11-29T10:47:11.216Z,29.27
2022-11-29T10:50:17.156Z,23.42
2022-11-29T10:53:27.035Z,29.80
2022-11-29T10:56:38.068Z,25.65
2022-11-29T10:59:43.613Z,28.98
2022-11-29T11:02:48.907Z,26.15
2022-11-29T11:06:01.558Z,30.50
2022-11-29T11:09:22.017Z,27.42
2022-11-29T11:12:28.538Z,29.15
2022-11-29T11:15:34.568Z,21.58
2022-11-29T11:18:40.972Z,24.60
2022-11-29T11:21:46.046Z,24.85
2022-11-29T11:24:59.827Z,27.00
2022-11-29T11:28:15.560Z,30.63
2022-11-29T11:31:28.535Z,34.95
2022-11-29T11:34:34.658Z,28.25
2022-11-29T11:37:40.082Z,29.00
2022-11-29T11:40:51.367Z,30.60
2022-11-29T11:44:00.499Z,35.00
2022-11-29T11:47:07.727Z,32.97
2022-11-29T11:50:15.698Z,30.88
2022-11-29T11:53:25.285Z,32.83
2022-11-29T11:56:36.583Z,32.30
2022-11-29T11:59:41.860Z,29.70
2022-11-29T12:02:47.300Z,34.00
2022-11-29T12:05:53.352Z,30.25
2022-11-29T12:09:01.058Z,32.03
2022-11-29T12:12:15.787Z,27.92
2022-11-29T12:15:22.772Z,27.70
2022-11-29T12:18:31.764Z,32.53
2022-11-29T12:21:38.132Z,47.85
2022-11-29T12:24:48.099Z,38.35
2022-11-29T12:27:56.258Z,36.65
2022-11-29T12:31:05.838Z,40.63
2022-11-29T12:34:22.174Z,36.38
2022-11-29T12:37:30.159Z,35.63
2022-11-29T12:40:39.583Z,34.67
2022-11-29T12:43:54.123Z,35.03
2022-11-29T12:50:33.037Z,33.92
2022-11-29T12:53:47.070Z,29.15
2022-11-29T12:56:55.381Z,27.55
2022-11-29T13:00:08.872Z,31.42
2022-11-29T13:03:18.115Z,31.88
2022-11-29T13:06:26.710Z,33.13
2022-11-29T13:12:37.697Z,38.72
2022-11-29T13:15:49.707Z,42.20
2022-11-29T13:18:58.813Z,41.70
2022-11-29T13:22:09.081Z,39.40
2022-11-29T13:25:18.373Z,48.67
2022-11-29T13:28:25.633Z,47.85
2022-11-29T13:31:33.960Z,49.17
2022-11-29T13:37:54.795Z,45.25
2022-11-29T13:41:02.784Z,50.72
2022-11-29T13:44:12.352Z,48.15
2022-11-29T13:47:21.306Z,50.78
2022-11-29T13:50:39.615Z,54.03
2022-11-29T13:57:03.793Z,43.13
2022-11-29T14:00:09.858Z,41.55
2022-11-29T14:03:35.477Z,49.67
2022-11-29T14:06:43.670Z,42.60
2022-11-29T14:12:56.258Z,50.20
2022-11-29T14:16:03.331Z,48.85
2022-11-29T14:19:23.656Z,42.85
2022-11-29T14:22:32.117Z,42.65
2022-11-29T14:25:53.353Z,41.30
2022-11-29T14:28:58.741Z,41.65
2022-11-29T14:32:03.906Z,37.13
2022-11-29T14:35:16.246Z,34.95
2022-11-29T14:38:30.808Z,38.60
2022-11-29T14:41:46.211Z,41.25
2022-11-29T14:44:54.055Z,31.58
2022-11-29T14:47:59.574Z,35.42
2022-11-29T14:51:11.881Z,32.10
2022-11-29T14:54:22.368Z,35.67
2022-11-29T14:57:42.500Z,33.10
2022-11-29T15:01:10.392Z,37.63
2022-11-29T15:04:16.161Z,37.95
2022-11-29T15:07:22.967Z,34.35
2022-11-29T15:10:33.491Z,34.53
2022-11-29T15:13:40.265Z,39.30
2022-11-29T15:16:53.527Z,33.63
2022-11-29T15:20:10.405Z,36.38
2022-11-29T15:23:18.626Z,34.05
2022-11-29T15:26:26.689Z,35.72
2022-11-29T15:32:37.440Z,36.15
2022-11-29T15:35:50.509Z,35.63
2022-11-29T15:38:57.533Z,34.20
2022-11-29T15:42:06.357Z,35.85
2022-11-29T15:45:26.748Z,33.67
2022-11-29T15:48:32.316Z,28.45
2022-11-29T15:51:39.583Z,31.30
2022-11-29T15:54:45.960Z,23.23
2022-11-29T15:57:55.501Z,32.58
2022-11-29T16:01:01.700Z,28.05
2022-11-29T16:04:07.145Z,33.53
2022-11-29T16:07:12.576Z,29.20
2022-11-29T16:10:19.746Z,30.50
2022-11-29T16:13:41.793Z,30.10
2022-11-29T16:16:47.909Z,25.63
2022-11-29T16:19:53.415Z,31.27
2022-11-29T16:23:12.191Z,33.35
2022-11-29T16:26:19.871Z,32.13
2022-11-29T16:29:30.070Z,31.27
2022-11-29T16:32:37.045Z,28.08
2022-11-29T16:35:42.071Z,28.13
2022-11-29T16:38:48.583Z,29.05
2022-11-29T16:42:04.903Z,34.55
2022-11-29T16:45:33.923Z,31.02
2022-11-29T16:48:40.683Z,33.25
2022-11-29T16:51:48.812Z,29.80
2022-11-29T16:54:54.053Z,42.13
2022-11-29T16:57:59.158Z,26.85
2022-11-29T17:01:18.249Z,33.70
2022-11-29T17:04:25.281Z,30.75
2022-11-29T17:07:32.614Z,28.95
2022-11-29T17:10:37.686Z,36.30
2022-11-29T17:13:43.239Z,60.33
2022-11-29T17:16:52.518Z,38.25
2022-11-29T17:19:57.595Z,31.35
2022-11-29T17:23:02.817Z,37.88
2022-11-29T17:26:07.988Z,32.60
2022-11-29T17:29:13.680Z,35.88
2022-11-29T17:32:26.515Z,35.80
2022-11-29T17:35:32.205Z,32.60
2022-11-29T17:38:37.435Z,32.90
2022-11-29T17:41:42.491Z,38.60
2022-11-29T17:44:47.728Z,39.95
2022-11-29T17:47:55.577Z,51.60
2022-11-29T17:51:02.285Z,33.47
2022-11-29T17:54:07.557Z,35.25
2022-11-29T17:57:13.024Z,33.60
2022-11-29T18:00:18.885Z,38.28
2022-11-29T18:03:26.937Z,36.38
2022-11-29T18:06:32.749Z,38.22
2022-11-29T18:09:37.827Z,34.58
2022-11-29T18:12:42.893Z,37.13
2022-11-29T18:15:48.137Z,38.97
2022-11-29T18:18:59.799Z,37.58
2022-11-29T18:22:05.278Z,33.17
2022-11-29T18:25:37.549Z,35.60
2022-11-29T18:28:37.489Z,37.47
2022-11-29T18:31:43.394Z,29.85
2022-11-29T18:34:51.257Z,31.00
2022-11-29T18:38:14.696Z,29.85
2022-11-29T18:41:22.575Z,33.75
2022-11-29T18:44:29.703Z,32.65
2022-11-29T18:47:36.061Z,33.47
2022-11-29T18:50:43.874Z,34.28
2022-11-29T18:53:49.544Z,31.77
2022-11-29T18:56:54.909Z,34.28
2022-11-29T19:00:00.098Z,37.15
2022-11-29T19:03:05.430Z,32.28
2022-11-29T19:06:14.413Z,32.67
2022-11-29T19:09:21.480Z,35.85
2022-11-29T19:12:26.920Z,32.92
2022-11-29T19:15:32.270Z,33.75
2022-11-29T19:18:37.769Z,34.10
2022-11-29T19:21:45.739Z,29.10
2022-11-29T19:24:51.036Z,29.73
2022-11-29T19:27:58.349Z,33.22
2022-11-29T19:31:04.911Z,30.88
2022-11-29T19:34:11.724Z,31.70
2022-11-29T19:37:19.502Z,29.75
2022-11-29T19:40:25.068Z,34.65
2022-11-29T19:43:30.511Z,27.73
2022-11-29T19:46:36.376Z,26.42
2022-11-29T19:49:46.149Z,25.85
2022-11-29T19:52:54.605Z,38.13
2022-11-29T19:55:59.704Z,23.90
2022-11-29T19:59:04.918Z,33.83
2022-11-29T20:02:10.282Z,28.88
2022-11-29T20:05:15.637Z,30.67
2022-11-29T20:08:23.453Z,31.67
2022-11-29T20:11:29.006Z,26.63
2022-11-29T20:14:34.400Z,26.02
2022-11-29T20:17:39.702Z,27.35
2022-11-29T20:20:44.883Z,31.23
2022-11-29T20:23:52.928Z,29.08
2022-11-29T20:26:58.351Z,27.70
2022-11-29T20:30:03.643Z,26.23
2022-11-29T20:33:09.576Z,24.83
2022-11-29T20:36:20.766Z,27.65
2022-11-29T20:39:32.898Z,27.27
2022-11-29T20:42:46.893Z,31.88
2022-11-29T20:45:52.581Z,26.98
2022-11-29T20:49:03.149Z,27.05
2022-11-29T20:52:14.635Z,24.58
2022-11-29T20:55:22.532Z,25.40
2022-11-29T20:58:27.917Z,21.33
2022-11-29T21:01:32.942Z,25.23
2022-11-29T21:04:38.209Z,26.55
2022-11-29T21:07:43.341Z,28.60
2022-11-29T21:10:51.430Z,32.00
2022-11-29T21:17:01.844Z,24.90
2022-11-29T21:20:08.307Z,28.75
2022-11-29T21:23:17.491Z,33.75
2022-11-29T21:26:27.672Z,26.30
2022-11-29T21:29:33.332Z,26.83
2022-11-29T21:32:38.978Z,32.40
2022-11-29T21:35:44.348Z,26.52
2022-11-29T21:38:54.906Z,29.05
2022-11-29T21:42:03.329Z,27.75
2022-11-29T21:45:14.883Z,31.20
2022-11-29T21:48:33.249Z,29.88
2022-11-29T21:51:38.260Z,29.42
2022-11-29T21:54:43.752Z,27.65
2022-11-29T21:57:51.583Z,27.45
2022-11-29T22:00:57.006Z,29.13
2022-11-29T22:04:02.475Z,38.08
2022-11-29T22:07:07.804Z,29.98
2022-11-29T22:10:14.651Z,31.70
2022-11-29T22:13:22.357Z,31.77
2022-11-29T22:16:27.935Z,43.17
2022-11-29T22:19:35.378Z,30.25
2022-11-29T22:22:40.389Z,28.23
2022-11-29T22:25:45.485Z,28.58
2022-11-29T22:28:53.254Z,33.00
2022-11-29T22:31:59.631Z,34.47
2022-11-29T22:35:04.892Z,30.05
2022-11-29T22:38:10.029Z,29.65
2022-11-29T22:41:16.542Z,34.65
2022-11-29T22:44:24.770Z,33.42
2022-11-29T22:50:35.225Z,29.27
2022-11-29T22:53:40.697Z,31.17
2022-11-29T22:56:46.665Z,28.95
2022-11-29T22:59:54.446Z,34.40
2022-11-29T23:02:59.687Z,33.60
2022-11-29T23:06:08.870Z,37.92
2022-11-29T23:09:16.564Z,32.22
2022-11-29T23:12:22.141Z,41.25
2022-11-29T23:15:30.001Z,33.40
2022-11-29T23:18:35.277Z,41.33
2022-11-29T23:21:42.274Z,39.20
2022-11-29T23:24:47.366Z,51.38
2022-11-29T23:27:54.274Z,40.03
2022-11-29T23:31:01.981Z,38.92
2022-11-29T23:34:07.587Z,38.72
2022-11-29T23:37:12.816Z,39.20
2022-11-29T23:40:18.328Z,39.20
2022-11-29T23:43:23.642Z,40.63
2022-11-29T23:46:31.513Z,41.03
2022-11-29T23:49:40.000Z,45.05
2022-11-29T23:52:45.242Z,50.20
2022-11-29T23:55:58.236Z,48.97
2022-11-29T23:59:03.525Z,40.80
